Startpagina
METAR-TAF:

METAR-TAF

Vliegvelden :

Tripoli, Libië

Luchthaven Mitiga Internationaal

breedte: 32-54N, lengte: 13-17E, hoogte: 11 m

Actueel weer

Dit bericht is 29 minuten geleden gemaakt, om 11:50 UTC
Wind 10 kt uit het westen
Temperatuur 18°C
Vochtigheid 64%
Druk 1020 hPa
Zicht: 7000 m
Gebroken wolken op 2500 ft
Verspreide wolken op 7000 ft

METAR: HLLM 191150Z 26010KT 7000 BKN025 SCT070 18/11 Q1020

Tijdstip: 14:19 (12:19 UTC)


TAF: ontbreekt

Waarnemingen en weersverwachtingen van meer dan 4000 vliegvelden (METAR en TAF).

De beschikbare stations zijn de gele en rode punten op de kaart.

Ga met uw muis naar het station om de naam te zien.

Klik dan om waarnemingen en weersverwachtingen te zien.

kaart wijzigen: klik op de groene knoppen met een zwart kruis om in te zoomen, op de groene knop met een streepje om uit te zoomen of op de groene pijlen voor aangrenzende kaarten.


METAR-TAF: